Time;durP1;ratioP1;P1;durP2;ratioP2;P2;SDS_P1;SDS_P2;PMS_P1;PMS_P2;Temp;Humidity;BMP_temperature;BMP_pressure;BME280_temperature;BME280_humidity;BME280_pressure;Samples;Min_cycle;Max_cycle;Signal;HPM_P1;HPM_P2
2023/06/18 00:04:18;;;;;;;12.30;9.40;;;;;;;13.74;74.82;99141.71;436744;1256;140436;-64
2023/06/18 00:14:22;;;;;;;10.60;8.90;;;;;;;13.55;75.39;99138.94;436605;1251;140087;-65
2023/06/18 00:24:25;;;;;;;10.30;9.30;;;;;;;13.32;75.68;99134.27;436738;1251;139922;-65
2023/06/18 00:34:32;;;;;;;11.50;10.50;;;;;;;13.15;76.85;99127.20;436788;1251;140767;-68
2023/06/18 00:44:35;;;;;;;9.70;8.70;;;;;;;13.05;77.66;99130.65;436803;1251;140834;-65
2023/06/18 00:54:39;;;;;;;10.60;9.60;;;;;;;12.89;77.85;99139.02;436299;1253;139925;-65
2023/06/18 01:04:43;;;;;;;8.50;7.80;;;;;;;12.73;78.20;99141.84;436626;1254;139072;-65
2023/06/18 01:14:50;;;;;;;9.60;8.70;;;;;;;12.56;78.52;99151.80;436603;1251;140790;-65
2023/06/18 01:24:56;;;;;;;11.90;9.40;;;;;;;12.47;78.93;99149.16;436731;1254;139984;-64
2023/06/18 01:34:59;;;;;;;13.00;11.80;;;;;;;12.36;79.43;99150.16;436512;1253;140844;-65
2023/06/18 01:45:08;;;;;;;10.40;9.30;;;;;;;12.29;80.07;99158.07;436968;1251;139670;-65
2023/06/18 01:55:13;;;;;;;12.00;10.90;;;;;;;12.14;79.97;99162.04;436505;1254;140193;-64
2023/06/18 02:05:16;;;;;;;14.00;12.70;;;;;;;12.04;80.78;99176.85;436215;1251;139094;-64
2023/06/18 02:15:19;;;;;;;13.30;12.00;;;;;;;12.01;81.72;99177.98;436379;1254;139748;-65
2023/06/18 02:25:28;;;;;;;16.10;12.10;;;;;;;11.91;81.73;99183.42;436400;1254;141034;-65
2023/06/18 02:35:32;;;;;;;10.60;9.50;;;;;;;11.87;82.13;99191.98;437233;1250;140227;-65
2023/06/18 02:45:35;;;;;;;11.30;10.20;;;;;;;11.90;81.76;99204.02;436329;1251;140948;-65
2023/06/18 02:55:41;;;;;;;11.40;10.30;;;;;;;12.00;81.46;99201.70;436281;1254;139296;-65
2023/06/18 03:05:44;;;;;;;11.90;10.70;;;;;;;12.13;81.37;99204.59;436921;1250;140161;-65
2023/06/18 03:15:47;;;;;;;11.20;10.20;;;;;;;12.38;81.16;99198.66;436506;1251;140480;-66
2023/06/18 03:25:50;;;;;;;12.70;11.40;;;;;;;12.71;80.82;99196.78;436205;1251;140466;-64
2023/06/18 03:35:53;;;;;;;12.40;11.20;;;;;;;13.22;80.26;99205.63;436357;1251;140800;-65
2023/06/18 03:45:56;;;;;;;11.40;10.30;;;;;;;13.54;79.57;99210.05;436272;1254;139040;-64
2023/06/18 03:56:00;;;;;;;14.20;13.00;;;;;;;13.93;79.37;99213.89;436264;1251;139575;-65
2023/06/18 04:06:04;;;;;;;13.80;12.50;;;;;;;14.43;78.97;99212.27;436615;1251;140007;-63
2023/06/18 04:16:07;;;;;;;13.00;11.70;;;;;;;15.04;78.20;99216.74;436252;1254;139589;-65
2023/06/18 04:26:10;;;;;;;12.70;11.60;;;;;;;15.79;77.30;99223.33;436065;1254;139329;-66
2023/06/18 04:36:14;;;;;;;13.30;12.20;;;;;;;16.42;76.05;99222.82;436108;1254;139736;-66
2023/06/18 04:46:17;;;;;;;12.40;11.20;;;;;;;16.91;74.44;99231.34;437086;1250;139318;-65
2023/06/18 04:56:21;;;;;;;13.00;11.80;;;;;;;17.01;73.64;99235.09;436226;1254;140383;-65
2023/06/18 05:06:24;;;;;;;13.30;12.00;;;;;;;17.37;73.22;99248.50;436326;1250;140338;-65
2023/06/18 05:16:27;;;;;;;12.40;11.30;;;;;;;18.06;71.78;99255.31;436206;1251;139270;-64
2023/06/18 05:26:30;;;;;;;12.20;11.00;;;;;;;19.08;70.12;99259.30;436567;1251;140339;-65
2023/06/18 05:36:33;;;;;;;11.80;10.80;;;;;;;21.65;66.90;99265.08;436745;1251;140144;-65
2023/06/18 05:46:36;;;;;;;11.00;10.10;;;;;;;25.22;60.31;99278.82;436891;1250;139186;-66
2023/06/18 05:56:40;;;;;;;10.50;9.70;;;;;;;26.83;55.60;99280.14;436593;1254;138859;-65
2023/06/18 06:06:43;;;;;;;9.40;8.70;;;;;;;31.23;50.39;99275.13;436806;1251;138534;-66
2023/06/18 06:16:46;;;;;;;9.40;8.70;;;;;;;36.32;41.83;99273.44;436570;1250;138277;-66
2023/06/18 06:26:49;;;;;;;8.10;7.60;;;;;;;39.13;36.39;99280.42;436420;1254;138455;-66
2023/06/18 06:36:52;;;;;;;8.50;7.80;;;;;;;40.68;32.62;99289.02;436636;1254;138450;-66
2023/06/18 06:46:55;;;;;;;7.70;7.20;;;;;;;44.01;29.25;99283.65;436716;1253;138534;-66
2023/06/18 06:56:58;;;;;;;7.90;7.40;;;;;;;44.59;26.01;99280.10;436506;1251;138172;-66
2023/06/18 07:07:01;;;;;;;6.00;5.50;;;;;;;41.99;25.48;99271.16;436235;1253;139049;-66
2023/06/18 07:17:05;;;;;;;5.40;5.00;;;;;;;38.84;25.85;99270.22;436345;1254;137981;-66
2023/06/18 07:27:08;;;;;;;5.90;5.50;;;;;;;35.10;27.61;99276.21;437255;1250;333435;-67
2023/06/18 07:37:11;;;;;;;4.80;4.40;;;;;;;33.33;29.38;99280.41;436449;1253;139026;-66
2023/06/18 07:47:14;;;;;;;4.20;3.90;;;;;;;33.25;29.83;99278.17;436457;1251;138871;-67
2023/06/18 07:57:17;;;;;;;5.20;4.80;;;;;;;33.45;29.26;99278.95;437030;1251;139324;-66
2023/06/18 08:07:20;;;;;;;5.10;4.60;;;;;;;31.87;30.29;99277.69;436085;1253;138685;-65
2023/06/18 08:17:23;;;;;;;4.60;4.20;;;;;;;31.03;31.85;99283.80;436291;1253;138102;-66
2023/06/18 08:27:26;;;;;;;4.30;4.00;;;;;;;30.52;32.34;99286.11;436509;1251;139260;-66
2023/06/18 08:37:29;;;;;;;4.20;3.90;;;;;;;30.17;33.36;99291.65;436533;1251;138849;-65
2023/06/18 08:47:34;;;;;;;4.90;3.20;;;;;;;30.36;33.06;99290.58;436366;1251;139921;-65
2023/06/18 08:57:43;;;;;;;5.10;3.90;;;;;;;30.56;32.96;99287.75;436417;1250;139013;-65
2023/06/18 09:07:47;;;;;;;3.50;3.30;;;;;;;31.00;32.54;99286.40;436621;1251;138729;-66
2023/06/18 09:17:51;;;;;;;3.90;3.60;;;;;;;30.69;32.33;99270.27;436700;1251;139141;-65
2023/06/18 09:27:56;;;;;;;6.20;3.80;;;;;;;30.28;32.48;99259.63;436819;1252;138586;-64
2023/06/18 09:38:09;;;;;;;3.90;3.60;;;;;;;30.09;32.85;99252.65;436344;1250;138539;-60
2023/06/18 09:48:12;;;;;;;4.10;3.80;;;;;;;29.76;32.85;99250.19;436747;1253;139238;-64
2023/06/18 09:58:15;;;;;;;3.70;3.50;;;;;;;29.33;33.39;99249.05;436727;1250;138852;-65
2023/06/18 10:08:18;;;;;;;4.80;4.20;;;;;;;29.07;33.56;99242.75;436422;1254;138621;-65
2023/06/18 10:18:23;;;;;;;4.50;4.00;;;;;;;28.68;33.67;99239.39;436392;1254;139072;-64
2023/06/18 10:28:29;;;;;;;5.40;4.30;;;;;;;28.21;34.15;99238.48;437032;1253;138147;-64
2023/06/18 10:38:35;;;;;;;4.40;4.00;;;;;;;28.04;34.47;99237.89;436333;1254;138010;-66
2023/06/18 10:48:39;;;;;;;4.20;3.90;;;;;;;27.69;35.20;99247.15;436474;1253;139442;-64
2023/06/18 10:58:42;;;;;;;5.20;4.80;;;;;;;26.99;36.03;99253.30;436803;1251;139467;-66
2023/06/18 11:08:46;;;;;;;8.10;7.30;;;;;;;26.38;37.43;99258.18;435969;1253;139505;-64
2023/06/18 11:18:49;;;;;;;9.50;8.20;;;;;;;25.85;40.86;99253.16;436151;1254;139181;-64
2023/06/18 11:28:53;;;;;;;7.80;7.10;;;;;;;25.90;42.16;99256.46;436503;1253;139420;-65
2023/06/18 11:38:58;;;;;;;5.00;4.60;;;;;;;26.08;41.11;99262.05;437300;1251;139262;-64
2023/06/18 11:49:01;;;;;;;5.40;4.90;;;;;;;26.33;39.87;99259.11;436263;1254;139300;-64
2023/06/18 11:59:04;;;;;;;5.40;4.90;;;;;;;26.44;39.72;99258.05;436479;1251;139725;-64
2023/06/18 12:09:08;;;;;;;5.40;5.00;;;;;;;26.29;39.72;99257.05;435925;1255;138106;-63
2023/06/18 12:19:12;;;;;;;5.30;4.70;;;;;;;25.90;39.76;99253.04;436480;1254;139345;-64
2023/06/18 12:29:17;;;;;;;8.60;7.80;;;;;;;25.88;39.92;99244.51;436239;1251;138428;-65
2023/06/18 12:39:20;;;;;;;8.00;7.40;;;;;;;25.62;40.69;99238.83;436368;1251;139482;-64
2023/06/18 12:49:24;;;;;;;8.00;6.80;;;;;;;24.86;42.47;99245.46;435916;1254;137992;-65
2023/06/18 12:59:27;;;;;;;7.10;6.40;;;;;;;24.60;43.72;99245.48;436877;1253;138282;-65
2023/06/18 13:09:30;;;;;;;11.40;7.20;;;;;;;25.01;44.00;99235.14;436253;1251;138042;-65
2023/06/18 13:19:33;;;;;;;6.20;5.60;;;;;;;25.41;43.63;99232.06;436524;1253;140730;-68
2023/06/18 13:29:53;;;;;;;6.00;5.40;;;;;;;25.78;42.80;99236.40;436701;1255;138557;-65
2023/06/18 13:39:56;;;;;;;5.00;4.60;;;;;;;25.58;41.76;99239.40;437016;1254;139776;-64
2023/06/18 13:49:59;;;;;;;5.50;4.50;;;;;;;25.53;42.02;99247.27;436429;1254;140841;-65
2023/06/18 14:00:03;;;;;;;5.80;5.30;;;;;;;25.36;41.52;99242.14;436454;1254;138716;-64
2023/06/18 14:10:08;;;;;;;5.60;5.20;;;;;;;24.93;42.58;99234.25;436498;1255;137911;-65
2023/06/18 14:20:11;;;;;;;5.90;5.40;;;;;;;24.59;42.87;99220.14;436485;1255;138145;-66
2023/06/18 14:30:16;;;;;;;6.10;5.60;;;;;;;24.26;43.42;99216.32;436329;1253;139040;-64
2023/06/18 14:40:19;;;;;;;5.70;5.30;;;;;;;23.94;44.15;99221.61;436269;1255;138140;-65
2023/06/18 14:50:22;;;;;;;7.40;5.20;;;;;;;23.74;44.53;99236.64;436512;1255;138883;-65
2023/06/18 15:00:25;;;;;;;5.20;4.80;;;;;;;23.74;44.24;99256.27;436032;1254;140257;-62
2023/06/18 15:10:28;;;;;;;5.60;5.00;;;;;;;23.82;44.40;99260.73;436321;1253;138105;-64
2023/06/18 15:20:39;;;;;;;6.50;4.00;;;;;;;23.10;45.73;99270.89;436404;1251;138815;-65
2023/06/18 15:30:42;;;;;;;8.30;4.90;;;;;;;20.94;50.29;99286.02;436587;1255;139990;-64
2023/06/18 15:40:46;;;;;;;8.30;7.50;;;;;;;19.65;56.43;99302.70;436958;1254;138057;-65
2023/06/18 15:50:49;;;;;;;7.60;7.00;;;;;;;18.91;60.59;99299.69;436452;1251;138348;-65
2023/06/18 16:00:52;;;;;;;7.70;7.00;;;;;;;18.74;63.06;99299.64;436371;1253;139469;-65
2023/06/18 16:10:55;;;;;;;6.80;6.20;;;;;;;18.99;63.82;99299.43;436689;1254;138691;-65
2023/06/18 16:20:58;;;;;;;7.70;5.20;;;;;;;19.26;63.93;99303.99;437005;1254;138929;-67
2023/06/18 16:31:01;;;;;;;6.40;5.80;;;;;;;19.58;63.91;99317.48;436637;1254;140085;-65
2023/06/18 16:41:04;;;;;;;6.50;6.00;;;;;;;19.69;64.25;99326.08;436528;1256;140476;-65
2023/06/18 16:51:09;;;;;;;6.50;6.00;;;;;;;19.63;63.67;99327.23;436445;1255;139883;-64
2023/06/18 17:01:12;;;;;;;5.80;5.40;;;;;;;19.40;63.56;99330.52;436686;1255;140439;-65
2023/06/18 17:11:18;;;;;;;6.70;5.80;;;;;;;19.52;63.68;99336.57;436419;1254;138910;-66
2023/06/18 17:21:21;;;;;;;6.00;5.50;;;;;;;19.61;63.65;99333.29;436849;1256;140124;-65
2023/06/18 17:31:25;;;;;;;5.80;5.30;;;;;;;19.49;63.03;99339.30;436362;1254;140372;-66
2023/06/18 17:41:29;;;;;;;4.90;4.50;;;;;;;19.30;62.49;99339.73;437001;1255;140653;-65
2023/06/18 17:51:32;;;;;;;5.10;4.70;;;;;;;19.24;63.73;99335.05;436555;1254;140157;-65
2023/06/18 18:01:35;;;;;;;5.90;5.40;;;;;;;19.16;64.61;99331.64;436264;1256;139035;-66
2023/06/18 18:11:38;;;;;;;5.50;5.00;;;;;;;19.16;64.78;99334.23;436265;1258;139485;-66
2023/06/18 18:21:42;;;;;;;7.30;5.90;;;;;;;19.05;65.92;99333.98;436193;1255;139485;-66
2023/06/18 18:31:45;;;;;;;6.20;5.70;;;;;;;18.76;67.65;99337.11;436293;1255;140322;-64
2023/06/18 18:41:48;;;;;;;6.40;5.80;;;;;;;18.42;69.56;99350.57;437312;1256;138754;-65
2023/06/18 18:51:52;;;;;;;6.30;5.80;;;;;;;18.03;70.65;99361.13;436651;1254;139974;-66
2023/06/18 19:01:55;;;;;;;8.60;7.80;;;;;;;17.58;72.34;99362.88;436421;1251;138875;-65
2023/06/18 19:12:00;;;;;;;7.90;6.50;;;;;;;17.21;73.36;99363.75;436624;1254;138907;-66
2023/06/18 19:22:04;;;;;;;7.40;6.80;;;;;;;16.88;74.55;99366.64;436847;1254;141928;-64
2023/06/18 19:32:08;;;;;;;8.30;7.50;;;;;;;16.55;75.42;99376.92;436965;1251;186381;-66
2023/06/18 19:42:11;;;;;;;8.90;7.30;;;;;;;16.24;76.34;99382.39;436498;1254;140380;-65
2023/06/18 19:52:15;;;;;;;9.80;8.80;;;;;;;15.93;77.06;99397.80;436786;1251;140321;-65
2023/06/18 20:02:18;;;;;;;11.40;10.40;;;;;;;15.65;78.67;99399.23;436511;1254;140811;-64
2023/06/18 20:12:21;;;;;;;8.90;8.10;;;;;;;15.43;79.43;99404.91;436120;1251;141369;-67
2023/06/18 20:22:24;;;;;;;11.70;10.40;;;;;;;15.20;79.71;99399.59;436074;1254;138936;-65
2023/06/18 20:32:27;;;;;;;11.20;9.70;;;;;;;15.11;81.27;99401.08;436304;1254;139901;-64
2023/06/18 20:42:30;;;;;;;12.60;10.80;;;;;;;14.96;81.73;99399.01;436151;1251;139537;-65
2023/06/18 20:52:33;;;;;;;12.90;10.70;;;;;;;14.79;82.20;99394.42;436255;1251;139289;-65
2023/06/18 21:02:40;;;;;;;12.40;11.10;;;;;;;14.58;82.51;99396.67;436343;1254;140929;-66
2023/06/18 21:12:44;;;;;;;12.70;11.40;;;;;;;14.39;83.26;99397.56;436572;1251;141275;-66
2023/06/18 21:22:47;;;;;;;14.20;12.90;;;;;;;14.19;83.74;99395.30;436505;1251;139503;-65
2023/06/18 21:32:50;;;;;;;14.20;12.90;;;;;;;14.02;84.13;99399.66;436748;1251;139562;-64
2023/06/18 21:42:54;;;;;;;14.40;12.90;;;;;;;13.87;85.13;99408.23;436362;1254;140190;-65
2023/06/18 21:52:57;;;;;;;14.80;13.30;;;;;;;13.76;86.17;99417.55;436393;1254;139670;-65
2023/06/18 22:03:00;;;;;;;15.40;13.90;;;;;;;13.68;86.72;99418.56;436255;1254;140036;-64
2023/06/18 22:13:03;;;;;;;13.30;12.10;;;;;;;13.59;87.23;99418.72;436233;1251;140174;-64
2023/06/18 22:23:06;;;;;;;13.20;12.00;;;;;;;13.46;87.05;99421.86;436191;1251;141481;-65
2023/06/18 22:33:09;;;;;;;15.00;13.50;;;;;;;13.37;87.04;99419.17;436074;1251;140527;-64
2023/06/18 22:43:12;;;;;;;18.30;16.40;;;;;;;13.38;87.98;99412.59;436038;1254;139837;-64
2023/06/18 22:53:16;;;;;;;15.70;14.10;;;;;;;13.41;89.10;99402.52;436711;1254;140255;-63
2023/06/18 23:03:19;;;;;;;13.80;12.40;;;;;;;13.32;88.73;99402.02;436148;1251;140226;-65
2023/06/18 23:13:22;;;;;;;16.70;14.20;;;;;;;13.21;89.05;99402.02;436121;1254;139442;-65
2023/06/18 23:23:28;;;;;;;15.00;13.60;;;;;;;13.15;89.58;99404.02;436271;1254;139741;-64
2023/06/18 23:33:31;;;;;;;15.40;12.60;;;;;;;13.00;89.58;99402.02;436140;1251;140249;-65
2023/06/18 23:43:35;;;;;;;13.90;12.60;;;;;;;12.83;89.43;99400.85;436269;1254;140996;-65
2023/06/18 23:53:38;;;;;;;15.30;13.70;;;;;;;12.65;89.28;99402.57;436431;1251;139364;-67
